createdAt,value
2017-10-18T00:00:52.113Z,10.13
2017-10-18T00:03:19.731Z,10.50
2017-10-18T00:05:47.289Z,11.47
2017-10-18T00:08:14.903Z,10.80
2017-10-18T00:10:42.863Z,10.87
2017-10-18T00:13:10.469Z,12.03
2017-10-18T00:15:38.029Z,10.97
2017-10-18T00:18:06.049Z,11.37
2017-10-18T00:20:34.072Z,11.10
2017-10-18T00:23:03.149Z,11.83
2017-10-18T00:25:30.771Z,10.90
2017-10-18T00:27:58.369Z,11.20
2017-10-18T00:30:26.070Z,10.80
2017-10-18T00:32:54.057Z,10.87
2017-10-18T00:35:21.634Z,11.83
2017-10-18T00:37:50.405Z,11.50
2017-10-18T00:40:18.766Z,10.93
2017-10-18T00:42:46.792Z,11.30
2017-10-18T00:45:14.361Z,10.43
2017-10-18T00:47:42.382Z,10.63
2017-10-18T00:50:10.736Z,10.07
2017-10-18T00:52:39.084Z,9.57
2017-10-18T00:55:08.038Z,10.80
2017-10-18T00:57:35.682Z,10.73
2017-10-18T01:00:04.653Z,10.77
2017-10-18T01:02:32.233Z,10.60
2017-10-18T01:04:59.891Z,10.63
2017-10-18T01:07:28.823Z,11.50
2017-10-18T01:09:56.423Z,12.63
2017-10-18T01:12:24.021Z,13.87
2017-10-18T01:14:51.613Z,13.87
2017-10-18T01:17:20.614Z,14.80
2017-10-18T01:19:48.209Z,14.27
2017-10-18T01:22:15.786Z,15.20
2017-10-18T01:24:43.428Z,14.30
2017-10-18T01:27:11.010Z,15.80
2017-10-18T01:29:40.169Z,17.27
2017-10-18T01:32:08.889Z,16.50
2017-10-18T01:34:37.684Z,15.20
2017-10-18T01:37:05.327Z,15.73
2017-10-18T01:39:33.675Z,16.90
2017-10-18T01:42:02.652Z,18.07
2017-10-18T01:44:30.245Z,17.93
2017-10-18T01:46:59.852Z,19.03
2017-10-18T01:49:28.767Z,18.70
2017-10-18T01:51:56.506Z,17.73
2017-10-18T01:54:24.084Z,19.57
2017-10-18T01:56:53.198Z,19.73
2017-10-18T01:59:21.224Z,21.70
2017-10-18T02:01:49.199Z,20.60
2017-10-18T02:04:18.164Z,18.30
2017-10-18T02:06:46.152Z,18.50
2017-10-18T02:09:14.920Z,19.30
2017-10-18T02:11:42.502Z,17.90
2017-10-18T02:14:10.861Z,18.90
2017-10-18T02:16:38.925Z,18.40
2017-10-18T02:19:06.913Z,19.03
2017-10-18T02:21:36.069Z,17.53
2017-10-18T02:24:03.648Z,16.10
2017-10-18T02:26:31.310Z,17.00
2017-10-18T02:28:58.901Z,17.60
2017-10-18T02:31:27.831Z,15.27
2017-10-18T02:33:56.601Z,15.73
2017-10-18T02:36:25.333Z,15.50
2017-10-18T02:38:54.304Z,16.20
2017-10-18T02:41:21.900Z,16.37
2017-10-18T02:43:49.511Z,16.30
2017-10-18T02:46:17.071Z,17.10
2017-10-18T02:48:44.634Z,17.80
2017-10-18T02:51:13.621Z,16.83
2017-10-18T02:53:41.210Z,18.83
2017-10-18T02:56:10.200Z,17.17
2017-10-18T02:58:39.120Z,17.63
2017-10-18T03:01:06.770Z,16.17
2017-10-18T03:03:34.353Z,16.80
2017-10-18T03:06:02.342Z,15.87
2017-10-18T03:08:30.761Z,16.90
2017-10-18T03:10:59.717Z,16.57
2017-10-18T03:13:27.325Z,16.93
2017-10-18T03:15:55.682Z,17.30
2017-10-18T03:18:24.797Z,16.20
2017-10-18T03:20:53.138Z,15.73
2017-10-18T03:23:20.787Z,17.13
2017-10-18T03:25:49.752Z,16.07
2017-10-18T03:28:18.101Z,16.80
2017-10-18T03:30:45.714Z,16.90
2017-10-18T03:33:13.272Z,16.30
2017-10-18T03:35:40.969Z,17.53
2017-10-18T03:38:08.537Z,19.37
2017-10-18T03:40:36.157Z,18.70
2017-10-18T03:43:04.112Z,17.23
2017-10-18T03:45:33.262Z,18.40
2017-10-18T04:05:20.980Z,17.30
2017-10-18T04:13:30.784Z,20.57
2017-10-18T04:15:59.816Z,20.93
2017-10-18T04:18:29.286Z,20.77
2017-10-18T04:21:00.123Z,21.00
2017-10-18T04:23:28.931Z,19.53
2017-10-18T04:25:58.033Z,21.70
2017-10-18T04:28:26.477Z,21.17
2017-10-18T04:30:54.242Z,21.53
2017-10-18T04:33:23.730Z,23.97
2017-10-18T04:35:51.597Z,23.40
2017-10-18T04:38:20.547Z,23.53
2017-10-18T04:40:48.212Z,23.40
2017-10-18T04:43:16.549Z,23.70
2017-10-18T04:45:45.579Z,23.47
2017-10-18T04:48:13.537Z,23.20
2017-10-18T04:50:42.321Z,23.80
2017-10-18T04:53:10.655Z,23.00
2017-10-18T04:55:38.223Z,22.53
2017-10-18T04:58:05.891Z,23.70
2017-10-18T05:00:33.538Z,22.83
2017-10-18T05:03:02.303Z,23.37
2017-10-18T05:05:30.169Z,24.00
2017-10-18T05:07:59.212Z,23.03
2017-10-18T05:27:47.611Z,22.87
2017-10-18T05:47:24.774Z,20.90
2017-10-18T05:49:52.461Z,24.03
2017-10-18T05:52:20.040Z,25.00
2017-10-18T05:54:49.010Z,24.60
2017-10-18T05:57:17.929Z,25.20
2017-10-18T05:59:47.070Z,24.90
2017-10-18T06:02:15.997Z,25.67
2017-10-18T06:04:44.909Z,26.70
2017-10-18T06:07:13.872Z,28.00
2017-10-18T06:09:42.787Z,25.93
2017-10-18T06:12:11.752Z,25.90
2017-10-18T06:14:40.467Z,25.13
2017-10-18T06:17:08.808Z,26.27
2017-10-18T06:19:39.071Z,24.17
2017-10-18T06:22:07.999Z,26.13
2017-10-18T06:24:35.748Z,24.37
2017-10-18T06:27:03.315Z,27.13
2017-10-18T06:29:30.920Z,27.67
2017-10-18T06:31:58.498Z,25.40
2017-10-18T06:34:26.086Z,26.87
2017-10-18T06:36:53.720Z,28.20
2017-10-18T06:39:22.073Z,25.20
2017-10-18T06:41:51.051Z,26.50
2017-10-18T06:44:19.014Z,27.50
2017-10-18T06:46:46.646Z,26.70
2017-10-18T06:49:14.232Z,26.60
2017-10-18T06:51:42.200Z,26.90
2017-10-18T06:54:10.712Z,26.23
2017-10-18T06:56:39.057Z,31.40
2017-10-18T06:59:06.692Z,30.97
2017-10-18T07:01:34.538Z,31.80
2017-10-18T07:04:02.160Z,29.43
2017-10-18T07:06:29.732Z,30.20
2017-10-18T07:08:57.339Z,27.90
2017-10-18T07:11:24.957Z,26.80
2017-10-18T07:13:53.910Z,25.53
2017-10-18T07:16:21.594Z,26.07
2017-10-18T07:18:49.168Z,25.00
2017-10-18T07:21:16.854Z,24.80
2017-10-18T07:23:44.824Z,25.87
2017-10-18T07:26:12.421Z,22.90
2017-10-18T07:28:40.863Z,23.40
2017-10-18T07:31:08.501Z,23.07
2017-10-18T07:33:36.526Z,23.17
2017-10-18T07:36:04.880Z,24.30
2017-10-18T07:38:34.019Z,23.80
2017-10-18T07:41:01.595Z,23.47
2017-10-18T07:43:29.327Z,25.37
2017-10-18T07:45:57.052Z,23.40
2017-10-18T07:48:25.481Z,26.57
2017-10-18T07:50:53.097Z,27.10
2017-10-18T07:53:21.562Z,27.23
2017-10-18T07:55:49.542Z,25.10
2017-10-18T07:58:17.193Z,25.77
2017-10-18T08:00:45.340Z,25.93
2017-10-18T08:03:14.392Z,27.10
2017-10-18T08:05:42.525Z,26.60
2017-10-18T08:08:10.739Z,28.60
2017-10-18T08:10:39.091Z,27.90
2017-10-18T08:13:07.942Z,28.03
2017-10-18T08:15:35.563Z,28.30
2017-10-18T08:18:04.172Z,28.67
2017-10-18T08:20:31.789Z,27.00
2017-10-18T08:23:00.128Z,26.10
2017-10-18T08:25:27.763Z,29.10
2017-10-18T08:27:56.120Z,28.50
2017-10-18T08:30:23.802Z,29.03
2017-10-18T08:32:51.385Z,29.70
2017-10-18T08:35:19.345Z,27.33
2017-10-18T08:37:46.968Z,25.83
2017-10-18T08:40:14.548Z,27.40
2017-10-18T08:42:42.220Z,26.50
2017-10-18T08:45:09.846Z,26.87
2017-10-18T08:47:37.481Z,26.50
2017-10-18T08:50:06.602Z,26.73
2017-10-18T08:52:34.189Z,26.53
2017-10-18T08:55:01.819Z,28.33
2017-10-18T08:57:30.218Z,27.57
2017-10-18T08:59:59.557Z,26.97
2017-10-18T09:02:28.496Z,27.00
2017-10-18T09:04:56.270Z,29.47
2017-10-18T09:07:24.654Z,29.93
2017-10-18T09:09:52.238Z,30.50
2017-10-18T09:12:19.866Z,32.93
2017-10-18T09:14:47.692Z,32.07
2017-10-18T09:17:15.721Z,32.37
2017-10-18T09:19:43.310Z,33.07
2017-10-18T09:22:12.306Z,29.93
2017-10-18T09:24:40.675Z,31.17
2017-10-18T09:27:08.645Z,32.23
2017-10-18T09:29:36.667Z,31.70
2017-10-18T09:32:04.248Z,32.70
2017-10-18T09:34:33.228Z,31.67
2017-10-18T09:37:02.156Z,30.60
2017-10-18T09:39:29.718Z,32.00
2017-10-18T09:41:58.704Z,33.13
2017-10-18T09:44:26.319Z,32.40
2017-10-18T09:46:55.082Z,32.73
2017-10-18T09:49:23.077Z,33.70
2017-10-18T09:51:50.734Z,32.83
2017-10-18T09:54:19.432Z,34.60
2017-10-18T09:56:47.425Z,34.23
2017-10-18T09:59:16.388Z,31.23
2017-10-18T10:01:43.975Z,29.03
2017-10-18T10:04:12.720Z,27.57
2017-10-18T10:06:40.311Z,27.37
2017-10-18T10:09:08.021Z,28.30
2017-10-18T10:11:35.598Z,26.43
2017-10-18T10:14:03.594Z,26.53
2017-10-18T10:16:31.238Z,26.60
2017-10-18T10:18:58.841Z,27.37
2017-10-18T10:21:26.445Z,27.80
2017-10-18T10:23:55.756Z,26.77
2017-10-18T10:26:24.148Z,27.37
2017-10-18T10:28:52.193Z,26.50
2017-10-18T10:31:20.182Z,28.40
2017-10-18T10:33:47.824Z,30.30
2017-10-18T10:36:15.802Z,31.43
2017-10-18T10:38:44.181Z,30.40
2017-10-18T10:41:12.153Z,30.60
2017-10-18T10:43:40.207Z,29.23
2017-10-18T10:46:08.796Z,29.93
2017-10-18T10:48:37.170Z,29.83
2017-10-18T10:51:05.931Z,30.50
2017-10-18T10:53:33.925Z,28.90
2017-10-18T10:56:03.383Z,29.13
2017-10-18T10:58:31.783Z,28.70
2017-10-18T11:00:59.412Z,26.90
2017-10-18T11:03:28.504Z,27.10
2017-10-18T11:05:56.091Z,27.20
2017-10-18T11:08:23.723Z,26.97
2017-10-18T11:10:52.064Z,24.63
2017-10-18T11:13:19.651Z,25.80
2017-10-18T11:15:47.992Z,26.00
2017-10-18T11:18:15.624Z,26.77
2017-10-18T11:20:43.614Z,27.10
2017-10-18T11:23:11.188Z,24.53
2017-10-18T11:25:38.831Z,25.70
2017-10-18T11:28:07.160Z,24.27
2017-10-18T11:30:35.913Z,23.33
2017-10-18T11:33:03.769Z,24.47
2017-10-18T11:35:31.437Z,24.97
2017-10-18T11:37:59.033Z,24.40
2017-10-18T11:40:26.625Z,21.73
2017-10-18T11:42:54.688Z,22.50
2017-10-18T11:45:23.296Z,20.70
2017-10-18T11:47:51.039Z,19.60
2017-10-18T11:50:19.381Z,21.47
2017-10-18T11:52:46.992Z,22.10
2017-10-18T11:55:14.567Z,18.93
2017-10-18T11:57:42.159Z,19.20
2017-10-18T12:00:09.770Z,17.07
2017-10-18T12:02:37.355Z,17.80
2017-10-18T12:05:04.984Z,18.60
2017-10-18T12:07:32.556Z,19.37
2017-10-18T12:10:00.613Z,17.17
2017-10-18T12:12:28.186Z,19.43
2017-10-18T12:14:55.739Z,18.40
2017-10-18T12:17:23.336Z,20.10
2017-10-18T12:19:50.901Z,20.50
2017-10-18T12:22:18.521Z,19.47
2017-10-18T12:24:46.182Z,18.67
2017-10-18T12:27:14.045Z,19.17
2017-10-18T12:29:41.605Z,19.17
2017-10-18T12:32:09.596Z,19.00
2017-10-18T12:34:37.228Z,17.50
2017-10-18T12:37:04.793Z,18.10
2017-10-18T12:39:32.436Z,16.50
2017-10-18T12:42:00.016Z,15.40
2017-10-18T12:44:27.600Z,16.27
2017-10-18T12:46:55.217Z,17.13
2017-10-18T12:49:22.797Z,17.10
2017-10-18T12:51:50.433Z,16.23
2017-10-18T12:54:18.009Z,17.87
2017-10-18T12:56:45.653Z,16.63
2017-10-18T12:59:13.230Z,17.30
2017-10-18T13:01:40.869Z,15.77
2017-10-18T13:04:08.476Z,17.67
2017-10-18T13:06:36.109Z,14.80
2017-10-18T13:09:03.749Z,14.53
2017-10-18T13:11:31.359Z,15.97
2017-10-18T13:13:58.989Z,15.80
2017-10-18T13:16:26.610Z,17.40
2017-10-18T13:18:54.185Z,17.30
2017-10-18T13:21:21.806Z,16.63
2017-10-18T13:23:49.519Z,16.27
2017-10-18T13:26:17.260Z,16.70
2017-10-18T13:28:44.889Z,15.67
2017-10-18T13:31:12.580Z,17.33
2017-10-18T13:33:40.201Z,17.20
2017-10-18T13:36:08.927Z,15.40
2017-10-18T13:38:36.578Z,15.60
2017-10-18T13:41:04.159Z,15.10
2017-10-18T13:43:31.805Z,16.47
2017-10-18T13:45:59.373Z,18.23
2017-10-18T13:48:26.985Z,16.07
2017-10-18T13:50:54.544Z,15.30
2017-10-18T13:53:22.165Z,13.77
2017-10-18T13:55:49.792Z,14.57
2017-10-18T13:58:18.188Z,14.07
2017-10-18T14:00:45.795Z,16.47
2017-10-18T14:03:13.595Z,15.70
2017-10-18T14:05:41.257Z,15.97
2017-10-18T14:08:08.855Z,16.60
2017-10-18T14:10:36.841Z,16.07
2017-10-18T14:13:04.465Z,15.10
2017-10-18T14:15:32.037Z,15.53
2017-10-18T14:17:59.792Z,13.30
2017-10-18T14:20:27.433Z,13.63
2017-10-18T14:22:55.082Z,12.23
2017-10-18T14:25:22.664Z,14.50
2017-10-18T14:27:50.261Z,12.60
2017-10-18T14:30:17.897Z,13.93
2017-10-18T14:32:45.518Z,12.73
2017-10-18T14:35:13.122Z,14.00
2017-10-18T14:37:40.787Z,13.83
2017-10-18T14:40:08.374Z,13.40
2017-10-18T14:42:36.002Z,14.20
2017-10-18T14:45:04.052Z,13.93
2017-10-18T14:47:31.721Z,13.60
2017-10-18T14:49:59.427Z,12.80
2017-10-18T14:52:28.034Z,12.10
2017-10-18T14:54:56.265Z,15.47
2017-10-18T14:57:23.968Z,14.37
2017-10-18T14:59:51.636Z,13.53
2017-10-18T15:02:19.209Z,14.03
2017-10-18T15:04:46.826Z,13.90
2017-10-18T15:07:14.404Z,15.13
2017-10-18T15:09:42.201Z,12.07
2017-10-18T15:12:09.830Z,13.50
2017-10-18T15:14:37.923Z,13.37
2017-10-18T15:17:05.542Z,13.97
2017-10-18T15:19:33.124Z,15.27
2017-10-18T15:22:00.746Z,14.10
2017-10-18T15:24:28.761Z,13.03
2017-10-18T15:26:56.410Z,13.73
2017-10-18T15:29:24.094Z,13.93
2017-10-18T15:31:52.341Z,15.10
2017-10-18T15:34:21.760Z,15.73
2017-10-18T15:36:52.152Z,15.53
2017-10-18T15:39:19.769Z,15.50
2017-10-18T15:41:47.358Z,14.30
2017-10-18T15:44:15.817Z,14.10
2017-10-18T15:46:44.190Z,14.40
2017-10-18T15:49:11.806Z,15.80
2017-10-18T15:51:39.463Z,15.53
2017-10-18T15:54:07.045Z,16.20
2017-10-18T15:56:35.093Z,15.00
2017-10-18T15:59:02.675Z,16.37
2017-10-18T16:01:31.128Z,17.63
2017-10-18T16:03:59.485Z,15.60
2017-10-18T16:06:27.908Z,14.27
2017-10-18T16:08:56.301Z,13.53
2017-10-18T16:11:24.714Z,13.90
2017-10-18T16:13:52.339Z,18.77
2017-10-18T16:16:19.985Z,14.00
2017-10-18T16:18:47.644Z,13.70
2017-10-18T16:21:15.262Z,12.60
2017-10-18T16:23:43.629Z,12.70
2017-10-18T16:26:11.286Z,12.43
2017-10-18T16:28:38.876Z,11.07
2017-10-18T16:31:07.742Z,10.57
2017-10-18T16:33:35.836Z,9.50
2017-10-18T16:36:03.650Z,10.50
2017-10-18T16:38:31.263Z,10.77
2017-10-18T16:40:58.881Z,10.80
2017-10-18T16:43:26.547Z,10.00
2017-10-18T16:45:54.886Z,10.17
2017-10-18T16:48:22.520Z,11.47
2017-10-18T16:50:51.122Z,10.67
2017-10-18T16:53:18.798Z,12.20
2017-10-18T16:55:46.438Z,11.30
2017-10-18T16:58:15.332Z,10.50
2017-10-18T17:00:43.357Z,12.37
2017-10-18T17:03:11.489Z,12.30
2017-10-18T17:05:40.306Z,11.80
2017-10-18T17:08:09.233Z,12.20
2017-10-18T17:10:37.232Z,13.67
2017-10-18T17:13:04.830Z,14.40
2017-10-18T17:15:32.803Z,14.60
2017-10-18T17:18:00.497Z,15.00
2017-10-18T17:20:28.083Z,13.23
2017-10-18T17:22:55.725Z,15.80
2017-10-18T17:25:23.309Z,17.40
2017-10-18T17:27:50.926Z,23.10
2017-10-18T17:32:52.935Z,20.73
2017-10-18T17:35:20.559Z,20.90
2017-10-18T17:37:48.137Z,20.17
2017-10-18T17:40:15.779Z,19.47
2017-10-18T17:42:43.358Z,18.00
2017-10-18T17:45:11.324Z,17.13
2017-10-18T17:47:38.947Z,16.10
2017-10-18T17:50:07.652Z,13.90
2017-10-18T17:52:35.282Z,14.57
2017-10-18T17:55:04.018Z,13.60
2017-10-18T17:57:32.614Z,13.40
2017-10-18T18:00:00.654Z,13.37
2017-10-18T18:02:28.226Z,14.47
2017-10-18T18:04:56.607Z,15.30
2017-10-18T18:07:25.005Z,15.83
2017-10-18T18:09:53.768Z,14.70
2017-10-18T18:12:21.374Z,14.33
2017-10-18T18:14:50.165Z,16.07
2017-10-18T18:17:17.758Z,17.10
2017-10-18T18:19:45.513Z,18.40
2017-10-18T18:22:13.137Z,19.40
2017-10-18T18:24:42.045Z,17.37
2017-10-18T18:27:10.794Z,16.93
2017-10-18T18:29:39.152Z,15.87
2017-10-18T18:32:07.409Z,19.80
2017-10-18T18:34:35.433Z,19.90
2017-10-18T18:37:04.375Z,19.67
2017-10-18T18:39:32.023Z,18.77
2017-10-18T18:42:00.409Z,17.90
2017-10-18T18:44:28.104Z,19.03
2017-10-18T18:46:56.099Z,22.20
2017-10-18T18:49:24.441Z,23.03
2017-10-18T18:51:52.038Z,23.50
2017-10-18T18:54:19.662Z,23.90
2017-10-18T18:56:47.257Z,28.27
2017-10-18T18:59:14.885Z,27.97
2017-10-18T19:01:42.588Z,25.90
2017-10-18T19:04:10.380Z,25.20
2017-10-18T19:06:39.094Z,25.97
2017-10-18T19:09:07.124Z,27.80
2017-10-18T19:11:36.189Z,25.67
2017-10-18T19:14:05.157Z,29.77
2017-10-18T19:16:32.882Z,34.53
2017-10-18T19:19:00.939Z,32.33
2017-10-18T19:21:28.560Z,23.83
2017-10-18T19:23:56.802Z,24.33
2017-10-18T19:26:25.560Z,26.50
2017-10-18T19:28:53.140Z,27.00
2017-10-18T19:31:20.748Z,26.00
2017-10-18T19:33:48.718Z,26.43
2017-10-18T19:36:16.325Z,26.70
2017-10-18T19:38:43.977Z,26.27
2017-10-18T19:41:11.593Z,27.83
2017-10-18T19:43:40.284Z,26.43
2017-10-18T19:46:07.971Z,23.60
2017-10-18T19:48:35.858Z,27.43
2017-10-18T19:51:04.499Z,26.73
2017-10-18T19:53:32.098Z,27.60
2017-10-18T19:55:59.709Z,24.03
2017-10-18T19:58:27.299Z,24.63
2017-10-18T20:00:55.750Z,21.70
2017-10-18T20:03:24.669Z,22.63
2017-10-18T20:05:52.352Z,23.37
2017-10-18T20:08:19.931Z,25.80
2017-10-18T20:10:47.566Z,27.03
2017-10-18T20:13:15.583Z,26.37
2017-10-18T20:15:44.143Z,27.00
2017-10-18T20:18:11.923Z,27.13
2017-10-18T20:20:39.528Z,29.00
2017-10-18T20:23:07.113Z,30.90
2017-10-18T20:25:34.686Z,29.47
2017-10-18T20:28:02.343Z,29.97
2017-10-18T20:30:29.932Z,28.67
2017-10-18T20:32:57.548Z,27.73
2017-10-18T20:35:25.512Z,29.63
2017-10-18T20:37:53.181Z,27.30
2017-10-18T20:40:21.217Z,27.97
2017-10-18T20:42:48.792Z,26.73
2017-10-18T20:45:16.992Z,27.83
2017-10-18T20:47:45.564Z,30.30
2017-10-18T20:50:13.210Z,27.30
2017-10-18T20:52:40.817Z,26.07
2017-10-18T20:55:09.802Z,24.97
2017-10-18T20:57:37.501Z,25.80
2017-10-18T21:00:05.083Z,27.80
2017-10-18T21:02:32.666Z,27.83
2017-10-18T21:05:01.484Z,28.27
2017-10-18T21:07:29.065Z,28.10
2017-10-18T21:09:57.260Z,26.77
2017-10-18T21:12:25.615Z,26.73
2017-10-18T21:15:10.586Z,26.90
2017-10-18T21:17:39.737Z,28.70
2017-10-18T21:20:07.564Z,27.17
2017-10-18T21:22:35.441Z,29.20
2017-10-18T21:25:03.811Z,31.53
2017-10-18T21:27:31.596Z,34.47
2017-10-18T21:30:00.717Z,31.80
2017-10-18T21:32:29.469Z,31.87
2017-10-18T21:34:57.062Z,26.73
2017-10-18T21:37:26.009Z,25.10
2017-10-18T21:39:54.766Z,18.40
2017-10-18T21:42:22.365Z,19.23
2017-10-18T21:44:51.353Z,18.90
2017-10-18T21:47:19.728Z,20.83
2017-10-18T21:49:47.291Z,21.80
2017-10-18T21:52:14.933Z,20.53
2017-10-18T21:54:42.908Z,19.50
2017-10-18T21:57:12.111Z,20.10
2017-10-18T21:59:41.066Z,23.87
2017-10-18T22:02:08.644Z,23.77
2017-10-18T22:04:37.618Z,24.77
2017-10-18T22:07:05.277Z,25.57
2017-10-18T22:09:33.455Z,24.17
2017-10-18T22:12:02.393Z,23.67
2017-10-18T22:14:30.413Z,23.57
2017-10-18T22:16:59.506Z,22.60
2017-10-18T22:19:28.424Z,21.80
2017-10-18T22:21:57.331Z,22.17
2017-10-18T22:24:25.682Z,22.70
2017-10-18T22:26:53.650Z,23.10
2017-10-18T22:29:22.776Z,23.90
2017-10-18T22:31:51.693Z,22.90
2017-10-18T22:34:20.736Z,20.90
2017-10-18T22:36:49.647Z,21.00
2017-10-18T22:39:17.231Z,22.70
2017-10-18T22:41:46.183Z,21.23
2017-10-18T22:44:14.173Z,24.50
2017-10-18T22:46:41.804Z,24.13
2017-10-18T22:49:10.720Z,24.80
2017-10-18T22:51:40.516Z,24.13
2017-10-18T22:54:08.926Z,24.30
2017-10-18T22:56:36.533Z,23.37
2017-10-18T22:59:04.991Z,23.70
2017-10-18T23:01:33.245Z,23.00
2017-10-18T23:04:01.203Z,22.80
2017-10-18T23:06:29.582Z,25.40
2017-10-18T23:08:57.149Z,26.57
2017-10-18T23:11:25.173Z,26.53
2017-10-18T23:13:52.765Z,28.90
2017-10-18T23:16:20.327Z,23.40
2017-10-18T23:18:47.953Z,23.00
2017-10-18T23:21:17.070Z,24.17
2017-10-18T23:23:44.728Z,26.27
2017-10-18T23:26:12.292Z,27.70
2017-10-18T23:28:41.229Z,27.20
2017-10-18T23:48:25.678Z,27.60
